logo tempoitalia

Diretta Meteo Belmont Perth, Australiamartedì 17 maggio ore 12:00

Mappa
Sereno 23 °C Sereno 24 Ore: T.min 12 T.max 23
Ponente Nord/Nord-Est Km/h 20.3 Punto di rugiada: 7 °C Umidità: 35% Visibilità: 10 Km
Il sole sorge alle: 06:57 Il sole tramonta alle: 17:27
17 Maggio 2022 12:00 tempo osservato: Sereno Sereno 23 35 1011 vento: Nord N/NE 20.3
17 Maggio 2022 11:30 tempo osservato: Sereno Sereno 22 35 1011 vento: Nord N/NE 24
17 Maggio 2022 11:00 tempo osservato: Sereno Sereno 22 35 1011 vento: Nord N/NE 20.3
17 Maggio 2022 10:30 tempo osservato: Sereno Sereno 21 46 1012 vento: Nord N/NE 13
17 Maggio 2022 10:00 tempo osservato: Sereno Sereno 19 48 1012 vento: Nord E/NE 18.5
17 Maggio 2022 09:30 tempo osservato: Sereno Sereno 17 51 1012 vento: Nord E/NE 24
17 Maggio 2022 09:00 tempo osservato: Sereno Sereno 16 55 1012 vento: Nord E/NE 24
17 Maggio 2022 08:30 tempo osservato: Sereno Sereno 15 58 1012 vento: Nord E/NE 22.2
17 Maggio 2022 08:00 tempo osservato: Sereno Sereno 13 66 1012 vento: Nord E/NE 24
17 Maggio 2022 07:30 tempo osservato: Sereno Sereno 13 66 1012 vento: Nord E/NE 18.5
17 Maggio 2022 07:00 tempo osservato: Sereno Sereno 12 71 1012 vento: Nord E/NE 14.8
17 Maggio 2022 06:30 tempo osservato: Sereno Sereno 12 71 1011 vento: Nord E/NE 18.5
17 Maggio 2022 06:00 tempo osservato: Sereno Sereno 12 71 1012 vento: Nord E/NE 20.3
17 Maggio 2022 05:30 tempo osservato: Sereno Sereno 13 66 1012 vento: Nord E/NE 22.2
17 Maggio 2022 05:00 tempo osservato: Sereno Sereno 13 66 1012 vento: Nord E/NE 24
17 Maggio 2022 04:30 tempo osservato: Sereno Sereno 13 66 1012 vento: Nord E/NE 20.3
17 Maggio 2022 04:00 tempo osservato: Sereno Sereno 13 66 1012 vento: Nord NE 18.5
17 Maggio 2022 03:30 tempo osservato: Sereno Sereno 14 62 1012 vento: Nord E/NE 18.5
17 Maggio 2022 03:00 tempo osservato: Sereno Sereno 14 62 1012 vento: Nord E/NE 20.3
17 Maggio 2022 02:30 tempo osservato: Sereno Sereno 14 62 1013 vento: Nord E/NE 20.3
17 Maggio 2022 02:00 tempo osservato: Sereno Sereno 14 62 1013 vento: Nord E/NE 18.5
17 Maggio 2022 01:30 tempo osservato: Sereno Sereno 14 62 1013 vento: Nord E/NE 24
17 Maggio 2022 01:00 tempo osservato: Sereno Sereno 14 62 1013 vento: Nord E/NE 18.5
17 Maggio 2022 00:30 tempo osservato: Sereno Sereno 15 58 1013 vento: Nord E/NE 16.7
17 Maggio 2022 00:00 tempo osservato: Sereno Sereno 15 58 1013 vento: Nord E/NE 16.7
16 Maggio 2022 23:30 tempo osservato: Sereno Sereno 15 58 1014 vento: Nord E/NE 18.5
16 Maggio 2022 23:00 tempo osservato: Sereno Sereno 15 58 1014 vento: Nord E/NE 16.7
16 Maggio 2022 22:30 tempo osservato: Sereno Sereno 15 58 1014 vento: Nord E/NE 14.8
16 Maggio 2022 22:00 tempo osservato: Sereno Sereno 16 55 1014 vento: Nord E/NE 16.7
16 Maggio 2022 21:30 tempo osservato: Sereno Sereno 16 55 1014 vento: Nord E/NE 16.7
16 Maggio 2022 21:00 tempo osservato: Sereno Sereno 16 58 1014 vento: Nord E 16.7
16 Maggio 2022 20:30 tempo osservato: Sereno Sereno 16 58 1015 vento: Nord E/NE 14.8
16 Maggio 2022 20:00 tempo osservato: Sereno Sereno 16 58 1014 vento: Nord E 16.7
16 Maggio 2022 19:30 tempo osservato: Sereno Sereno 16 58 1015 vento: Nord E 14.8
16 Maggio 2022 19:00 tempo osservato: Sereno Sereno 15 62 1015 vento: Nord E/NE 11.1
16 Maggio 2022 18:30 tempo osservato: Sereno Sereno 15 62 1014 vento: Nord E 11.1
16 Maggio 2022 18:00 tempo osservato: Sereno Sereno 16 58 1014 vento: Nord E 11.1
16 Maggio 2022 17:30 tempo osservato: Sereno Sereno 18 51 1014 vento: Nord E 13
16 Maggio 2022 17:00 tempo osservato: Sereno Sereno 20 45 1014 vento: Nord E/NE 13
16 Maggio 2022 16:30 tempo osservato: Sereno Sereno 21 40 1014 vento: Nord NE 13
16 Maggio 2022 16:00 tempo osservato: Sereno Sereno 22 40 1014 vento: Nord NE 14.8
16 Maggio 2022 15:30 tempo osservato: Sereno Sereno 22 40 1014 vento: Nord NE 13
16 Maggio 2022 15:00 tempo osservato: Sereno Sereno 22 40 1014 vento: Nord N 16.7
16 Maggio 2022 14:30 tempo osservato: Sereno Sereno 21 43 1015 vento: Nord N/NE 18.5
16 Maggio 2022 14:00 tempo osservato: Sereno Sereno 21 43 1015 vento: Nord E/NE 18.5
16 Maggio 2022 13:30 tempo osservato: Sereno Sereno 21 43 1015 vento: Nord NE 18.5
16 Maggio 2022 13:00 tempo osservato: Sereno Sereno 21 43 1016 vento: Nord NE 24